Terminal Aerodrome Forecast
Issued by NWS Riverton, WY

Home | Current Version | Previous Version | Text Only | Print | Product List | Glossary On
Versions: 1 2 3 4 5 6 7 8 9 10 11 12 13 14 15 16 17 18 19 20 21 22 23
000
FTUS45 KRIW 232300
TAFRIW
TAF
KRIW 232320Z 2400/2424 VRB08G15KT P6SM -TSRA SCT030 BKN050CB
     FM240030 VRB06KT P6SM VCTS SCT035 BKN060CB
     FM240200 04008KT P6SM -SHRA SCT015 OVC030
     FM240800 03014KT 4SM -RA BR SCT012 OVC020
     FM241800 04016KT P6SM VCTS SCT020CB BKN050=

USA.gov is the U.S. government's official web portal to all federal, state and local government web resources and services.